Terminal Aerodrome Forecast
Issued by NWS

Home | Current Version | Previous Version | Text Only | Print | Product List | Glossary On
Versions: 1 2 3 4 5 6 7 8 9 10 11 12 13 14 15 16
322
FTUS46 KMTR 062340
TAFSTS
TAF
KSTS 062340Z 0700/0724 17005KT P6SM VCSH OVC017
     FM070600 VRB03KT P6SM OVC010
     FM070900 00000KT P6SM OVC007 PROB30 0714/0717 5SM -SHRA OVC008
     FM071700 19006KT P6SM -RA FEW008 BKN015 OVC040=

USA.gov is the U.S. government's official web portal to all federal, state and local government web resources and services.